Aérodrome :
LOGIN :

S'inscrire | Disclaimer

   EN    FR    IT 

 










Légende :    VFR   VFR Marginal   IFR   IFR Intensif   IFR Très Intensif
Visi : 
Plafond : 
>= 8 km
>= 3000ft
5 à 8 km
1000 à 3000 ft
1500m à 5 km
500 à 1000 ft
800 à 1500m
200 à 500 ft
< 800m
< 200 ft
Symboles :   Orages  Brouillard  Fortes neiges  Fortes précipitations  Vent > 20 kt
SIGMETs :   Divers  Orages  Givrage  Turbulence  Onde Orograph.  Cendres Volcan.






- Altitude de l'aérodrome : 63 ft
- Code IATA : BZM


EHWO - Woensdrecht Airbase

DERNIER METAR :
  • 270938Z AUTO 07005KT 050V150 2200 BR OVC001 03/03 Q1041 RED

METARs EXPIRÉS :
  • 270925Z AUTO 06004KT 360V100 1500 BR OVC001 03/03 Q1041 RED
  • 270916Z AUTO 06005KT 010V100 2000 BR OVC001 03/03 Q1041 RED
  • 270855Z AUTO 09005KT 060V140 0800 FG VV001 03/03 Q1041 AMB
  • 270825Z AUTO 09004KT 060V130 0350 FG VV000 03/03 Q1041 RED
  • 270755Z AUTO 07005KT 030V100 0200 FG VV000 02/02 Q1041 REDZ RED
  • 270749Z AUTO 08005KT 030V110 0200 DZRA VV000 02/02 Q1040 RED
  • 270738Z AUTO 08005KT 050V120 0200 -RA VV000 02/02 Q1040 RED
  • 270725Z AUTO 08006KT 040V100 0200 -SNRA VV000 02/02 Q1040 RED
  • 270707Z AUTO 09005KT 0200 -RASN VV000 02/01 Q1040 RED
  • 270655Z AUTO 07004KT 0150 -SNRA VV000 01/01 Q1040 RED
  • 270649Z AUTO VRB02KT 0150 -SNRA VV000 01/01 Q1040 RED

Prévision TAF périmée.



MET'MAP, la Météo Aéronautique d'un coup d'oeil ! - Copyright ORBIFLY Décembre 2007 - Disclaimer

ORBIFLY MET'MAP TEAM :

Programmation & Développement : Alexandra Zaïnal
Sur une idée originale de : Baudouin d'Aumeries
Assistance à la programmation : Marc-Olivier Méhu
Soutien technique & logistique : Manuel Goepfert

Contact : metmap@orbifly.com




SOURCES & CREDITS :

   NOAA